ADDS METAR Data

Data at: 0746 UTC 24 Oct 2017

METAR for:KPYM (Plymouth Muni, MA, US)
Text:KPYM 240652Z AUTO 15004KT 10SM FEW070 19/16 A3010 RMK AO2 SLP194 T01940161
Temperature: 19.4°C ( 67°F)
Dewpoint: 16.1°C ( 61°F) [RH = 81%]
Pressure (altimeter):30.10 inches Hg (1019.4 mb) [Sea level pressure: 1019.4 mb]
Winds:from the SSE (150 degrees) at 5 MPH (4 knots; 2.1 m/s)
Visibility:10 or more sm (16+ km)
Ceiling:at least 12,000 feet AGL
Clouds: few clouds at 7000 feet AGL
QC Flag:automated observation with no human augmentation